Terminal Aerodrome Forecast
Issued by NWS Cleveland, OH

Home | Current Version | Previous Version | Text Only | Print | Product List | Glossary On
Versions: 1 2 3 4 5 6 7 8 9 10 11 12 13 14 15 16 17 18
227
FTUS41 KCLE 260541
TAFTOL
TAF
KTOL 260541Z 2606/2706 07012KT P6SM OVC008
      TEMPO 2606/2609 SCT008 OVC045
     FM260900 06004KT 5SM BR SCT012 OVC045
      TEMPO 2609/2613 3SM BR BKN012
     FM261500 08006KT 3SM -RA BR OVC020
      TEMPO 2615/2618 1SM -RA BR OVC008
     FM262100 20008KT P6SM BKN045 OVC120
     FM270200 20004KT 5SM BR SCT006 BKN120=

USA.gov is the U.S. government's official web portal to all federal, state and local government web resources and services.